Time;durP1;ratioP1;P1;durP2;ratioP2;P2;SDS_P1;SDS_P2;PMS_P1;PMS_P2;Temp;Humidity;BMP_temperature;BMP_pressure;BME280_temperature;BME280_humidity;BME280_pressure;Samples;Min_cycle;Max_cycle;Signal;HPM_P1;HPM_P2
2024/02/29 00:09:40;;;;;;;;;;;7.50;99.90;;;;;;21098949;28;19916;-82
2024/02/29 00:19:41;;;;;;;;;;;7.40;99.90;;;;;;21098047;28;20318;-83
2024/02/29 00:29:42;;;;;;;;;;;7.40;99.90;;;;;;21100255;28;19916;-82
2024/02/29 00:39:43;;;;;;;;;;;7.50;99.90;;;;;;21099141;28;19912;-82
2024/02/29 00:49:43;;;;;;;;;;;7.40;99.90;;;;;;21095225;28;20387;-80
2024/02/29 00:59:44;;;;;;;;;;;7.50;99.90;;;;;;21099363;28;20298;-81
2024/02/29 01:09:45;;;;;;;;;;;7.40;99.90;;;;;;21092442;28;19916;-81
2024/02/29 01:19:45;;;;;;;;;;;7.30;99.90;;;;;;21100598;28;19979;-80
2024/02/29 01:29:46;;;;;;;;;;;7.30;99.90;;;;;;21090330;28;19924;-82
2024/02/29 01:39:46;;;;;;;;;;;7.40;99.90;;;;;;21089331;28;20283;-80
2024/02/29 01:49:48;;;;;;;;;;;7.30;99.90;;;;;;21094476;28;19920;-80
2024/02/29 01:59:49;;;;;;;;;;;7.20;99.90;;;;;;21089446;28;19912;-82
2024/02/29 02:09:50;;;;;;;;;;;7.20;99.90;;;;;;21084989;28;19916;-82
2024/02/29 02:19:51;;;;;;;;;;;7.20;99.90;;;;;;21092669;28;19954;-83
2024/02/29 02:29:52;;;;;;;;;;;7.20;99.90;;;;;;21092287;28;19938;-81
2024/02/29 02:39:52;;;;;;;;;;;7.20;99.90;;;;;;21092599;28;19912;-81
2024/02/29 02:49:53;;;;;;;;;;;7.10;99.90;;;;;;21087239;28;19916;-80
2024/02/29 02:59:54;;;;;;;;;;;7.00;99.90;;;;;;21106185;28;19912;-83
2024/02/29 03:09:54;;;;;;;;;;;6.90;99.90;;;;;;21106699;28;19920;-82
2024/02/29 03:19:55;;;;;;;;;;;6.80;99.90;;;;;;21105172;28;20007;-80
2024/02/29 03:29:56;;;;;;;;;;;6.60;99.90;;;;;;21104174;28;19916;-82
2024/02/29 03:39:56;;;;;;;;;;;6.60;99.90;;;;;;21101287;28;19912;-79
2024/02/29 03:49:57;;;;;;;;;;;6.50;99.90;;;;;;21103990;28;20419;-80
2024/02/29 03:59:58;;;;;;;;;;;6.60;99.90;;;;;;21093261;28;19912;-79
2024/02/29 04:09:58;;;;;;;;;;;6.60;99.90;;;;;;21107610;28;19951;-81
2024/02/29 04:19:59;;;;;;;;;;;6.70;99.90;;;;;;21104647;28;19951;-81
2024/02/29 04:30:00;;;;;;;;;;;6.60;99.90;;;;;;21094002;28;19916;-78
2024/02/29 04:40:01;;;;;;;;;;;6.60;99.90;;;;;;21078702;28;19916;-81
2024/02/29 04:50:03;;;;;;;;;;;6.60;99.90;;;;;;21094885;28;20319;-80
2024/02/29 05:00:06;;;;;;;;;;;6.60;99.90;;;;;;21093327;28;19920;-78
2024/02/29 05:10:07;;;;;;;;;;;6.60;99.90;;;;;;21061208;28;19923;-79
2024/02/29 05:20:08;;;;;;;;;;;6.50;99.90;;;;;;21093304;28;19912;-80
2024/02/29 05:30:09;;;;;;;;;;;6.50;99.90;;;;;;21095355;28;19976;-82
2024/02/29 05:40:12;;;;;;;;;;;6.50;99.90;;;;;;21093281;28;19955;-83
2024/02/29 05:50:13;;;;;;;;;;;6.50;99.90;;;;;;21095942;28;20395;-81
2024/02/29 06:00:14;;;;;;;;;;;6.40;99.90;;;;;;21096026;28;19934;-81
2024/02/29 06:10:14;;;;;;;;;;;6.50;99.90;;;;;;21087350;28;19916;-81
2024/02/29 06:20:15;;;;;;;;;;;6.30;99.90;;;;;;21069325;28;19912;-82
2024/02/29 06:30:16;;;;;;;;;;;6.20;99.90;;;;;;21061698;28;20363;-82
2024/02/29 06:40:16;;;;;;;;;;;6.20;99.90;;;;;;21084292;28;20291;-80
2024/02/29 06:50:17;;;;;;;;;;;6.20;99.90;;;;;;21072353;28;19962;-77
2024/02/29 07:00:18;;;;;;;;;;;6.20;99.90;;;;;;21056174;28;19934;-80
2024/02/29 07:10:19;;;;;;;;;;;6.40;99.90;;;;;;21103397;28;19963;-80
2024/02/29 07:20:20;;;;;;;;;;;6.30;99.90;;;;;;21104061;28;19952;-78
2024/02/29 07:30:21;;;;;;;;;;;6.30;99.90;;;;;;21108866;28;19916;-80
2024/02/29 07:40:22;;;;;;;;;;;6.40;99.90;;;;;;21107081;28;19911;-77
2024/02/29 07:50:22;;;;;;;;;;;6.40;99.90;;;;;;21094839;28;19917;-80
2024/02/29 08:00:24;;;;;;;;;;;6.50;99.90;;;;;;21104718;28;20256;-78
2024/02/29 08:10:24;;;;;;;;;;;6.60;99.90;;;;;;21100726;28;19944;-79
2024/02/29 08:20:25;;;;;;;;;;;6.60;99.90;;;;;;21098135;28;19915;-77
2024/02/29 08:30:26;;;;;;;;;;;6.70;99.90;;;;;;21103422;28;20276;-79
2024/02/29 08:40:27;;;;;;;;;;;6.80;99.90;;;;;;21071595;28;20003;-79
2024/02/29 08:50:27;;;;;;;;;;;6.80;99.90;;;;;;21044326;28;20416;-79
2024/02/29 09:00:28;;;;;;;;;;;7.00;99.90;;;;;;21039962;28;19970;-79
2024/02/29 09:10:29;;;;;;;;;;;7.30;99.90;;;;;;21064069;28;19926;-78
2024/02/29 09:20:29;;;;;;;;;;;7.60;99.90;;;;;;21063467;28;20003;-77
2024/02/29 09:30:30;;;;;;;;;;;7.60;99.90;;;;;;21058251;28;20425;-78
2024/02/29 09:40:31;;;;;;;;;;;7.80;99.90;;;;;;21072945;28;19916;-77
2024/02/29 09:50:31;;;;;;;;;;;8.30;99.90;;;;;;21079857;28;19920;-78
2024/02/29 10:00:32;;;;;;;;;;;8.40;99.90;;;;;;21071011;28;20341;-77
2024/02/29 10:10:33;;;;;;;;;;;8.70;99.90;;;;;;21075726;28;19915;-78
2024/02/29 10:20:35;;;;;;;;;;;8.90;99.90;;;;;;21059337;28;20464;-78
2024/02/29 10:30:36;;;;;;;;;;;9.20;99.90;;;;;;21064416;28;19917;-78
2024/02/29 10:40:37;;;;;;;;;;;9.30;99.90;;;;;;21077550;28;19912;-78
2024/02/29 10:50:58;;;;;;;;;;;9.50;99.90;;;;;;21078285;28;20360;-78
2024/02/29 11:00:58;;;;;;;;;;;9.90;99.90;;;;;;21076683;28;19912;-78
2024/02/29 11:10:59;;;;;;;;;;;9.50;99.90;;;;;;21064117;28;19923;-78
2024/02/29 11:21:05;;;;;;;;;;;10.20;99.90;;;;;;21064825;28;20287;-78
2024/02/29 11:31:14;;;;;;;;;;;10.50;99.90;;;;;;21054013;28;19927;-77
2024/02/29 11:41:19;;;;;;;;;;;10.80;99.90;;;;;;21053637;28;20562;-77
2024/02/29 11:51:19;;;;;;;;;;;10.80;99.90;;;;;;21053262;28;19928;-77
2024/02/29 12:01:23;;;;;;;;;;;11.00;99.90;;;;;;21072020;28;19912;-77
2024/02/29 12:11:24;;;;;;;;;;;11.00;99.90;;;;;;21017586;28;19920;-76
2024/02/29 12:21:25;;;;;;;;;;;10.80;99.90;;;;;;21041246;28;20004;-77
2024/02/29 12:31:25;;;;;;;;;;;11.00;99.90;;;;;;21039121;28;20295;-78
2024/02/29 12:41:26;;;;;;;;;;;11.40;99.90;;;;;;21013156;28;19918;-78
2024/02/29 12:51:27;;;;;;;;;;;11.30;99.90;;;;;;21042162;28;19916;-77
2024/02/29 13:01:28;;;;;;;;;;;11.40;99.90;;;;;;21027436;28;20333;-76
2024/02/29 13:11:29;;;;;;;;;;;11.10;99.90;;;;;;20993735;28;19916;-78
2024/02/29 13:21:31;;;;;;;;;;;11.10;99.90;;;;;;21038621;28;20363;-77
2024/02/29 13:31:31;;;;;;;;;;;11.00;99.90;;;;;;21035240;28;20264;-76
2024/02/29 13:41:32;;;;;;;;;;;12.20;99.90;;;;;;21040705;28;19999;-77
2024/02/29 13:51:33;;;;;;;;;;;13.00;99.90;;;;;;21041108;28;19992;-77
2024/02/29 14:01:33;;;;;;;;;;;13.30;99.90;;;;;;21042821;28;19997;-77
2024/02/29 14:11:34;;;;;;;;;;;13.20;99.90;;;;;;21040681;28;19916;-77
2024/02/29 14:21:35;;;;;;;;;;;14.00;99.90;;;;;;21042866;28;19919;-78
2024/02/29 14:31:35;;;;;;;;;;;14.20;99.90;;;;;;21051983;28;20417;-78
2024/02/29 14:41:37;;;;;;;;;;;12.80;99.90;;;;;;21050572;28;20398;-77
2024/02/29 14:51:37;;;;;;;;;;;13.80;99.90;;;;;;21067667;28;19923;-78
2024/02/29 15:01:38;;;;;;;;;;;13.30;99.90;;;;;;21059645;28;19943;-78
2024/02/29 15:11:38;;;;;;;;;;;14.50;99.90;;;;;;21056774;28;19917;-77
2024/02/29 15:21:39;;;;;;;;;;;14.40;99.90;;;;;;21076752;28;19990;-78
2024/02/29 15:31:40;;;;;;;;;;;13.70;99.90;;;;;;21079557;28;19970;-78
2024/02/29 15:41:41;;;;;;;;;;;13.90;99.90;;;;;;21062103;28;20268;-77
2024/02/29 15:51:41;;;;;;;;;;;13.00;99.90;;;;;;21077027;28;19963;-76
2024/02/29 16:01:42;;;;;;;;;;;12.70;99.90;;;;;;21072927;28;19912;-78
2024/02/29 16:11:43;;;;;;;;;;;12.20;99.90;;;;;;21033690;28;19959;-77
2024/02/29 16:21:43;;;;;;;;;;;11.50;99.90;;;;;;21038271;28;19912;-77
2024/02/29 16:31:44;;;;;;;;;;;11.10;99.90;;;;;;21038528;28;19915;-77
2024/02/29 16:41:45;;;;;;;;;;;10.60;99.90;;;;;;21051108;28;19918;-77
2024/02/29 16:51:46;;;;;;;;;;;10.40;99.90;;;;;;21042570;28;19924;-78
2024/02/29 17:01:46;;;;;;;;;;;10.20;99.90;;;;;;21057172;28;19916;-78
2024/02/29 17:11:47;;;;;;;;;;;9.80;99.90;;;;;;21054527;28;20464;-77
2024/02/29 17:21:48;;;;;;;;;;;9.00;99.90;;;;;;21014830;28;19920;-76
2024/02/29 17:31:48;;;;;;;;;;;8.20;99.90;;;;;;21045359;28;19923;-77
2024/02/29 17:41:49;;;;;;;;;;;8.00;99.90;;;;;;21036411;28;19912;-79
2024/02/29 17:51:50;;;;;;;;;;;7.60;99.90;;;;;;21036911;28;20330;-78
2024/02/29 18:01:50;;;;;;;;;;;7.00;99.90;;;;;;21023003;28;20303;-80
2024/02/29 18:11:51;;;;;;;;;;;7.30;99.90;;;;;;21041274;28;19956;-81
2024/02/29 18:21:54;;;;;;;;;;;7.40;99.90;;;;;;21037686;28;19912;-81
2024/02/29 18:31:55;;;;;;;;;;;7.50;99.90;;;;;;21036393;28;20394;-79
2024/02/29 18:41:56;;;;;;;;;;;6.80;99.90;;;;;;21052621;28;19912;-80
2024/02/29 18:51:56;;;;;;;;;;;6.60;99.90;;;;;;21035816;28;19920;-79
2024/02/29 19:01:57;;;;;;;;;;;6.60;99.90;;;;;;21044086;28;20497;-79
2024/02/29 19:11:57;;;;;;;;;;;6.30;99.90;;;;;;21028907;28;19924;-79
2024/02/29 19:21:58;;;;;;;;;;;6.40;99.90;;;;;;21028409;28;20008;-79
2024/02/29 19:31:59;;;;;;;;;;;6.40;99.90;;;;;;21016483;28;19917;-79
2024/02/29 19:42:00;;;;;;;;;;;6.40;99.90;;;;;;21036286;28;19919;-81
2024/02/29 19:52:00;;;;;;;;;;;6.10;99.90;;;;;;21026614;28;19979;-81
2024/02/29 20:02:01;;;;;;;;;;;6.00;99.90;;;;;;21059724;28;19919;-80
2024/02/29 20:12:02;;;;;;;;;;;5.90;99.90;;;;;;21076849;28;19916;-79
2024/02/29 20:22:03;;;;;;;;;;;5.80;99.90;;;;;;21065696;28;19919;-78
2024/02/29 20:32:03;;;;;;;;;;;5.70;99.90;;;;;;21065032;28;20428;-79
2024/02/29 20:42:04;;;;;;;;;;;5.60;99.90;;;;;;21075079;28;19912;-80
2024/02/29 20:52:06;;;;;;;;;;;5.60;99.90;;;;;;21067243;28;19939;-80
2024/02/29 21:02:07;;;;;;;;;;;5.50;99.90;;;;;;21043797;28;19968;-81
2024/02/29 21:12:08;;;;;;;;;;;5.50;99.90;;;;;;21040693;28;19916;-80
2024/02/29 21:22:08;;;;;;;;;;;5.40;99.90;;;;;;21053557;28;19912;-80
2024/02/29 21:32:09;;;;;;;;;;;4.70;99.90;;;;;;21048485;28;20458;-81
2024/02/29 21:42:10;;;;;;;;;;;4.60;99.90;;;;;;21037078;28;19920;-81
2024/02/29 21:52:10;;;;;;;;;;;4.60;99.90;;;;;;21054326;28;20292;-78
2024/02/29 22:02:12;;;;;;;;;;;4.50;99.90;;;;;;21038355;28;19919;-78
2024/02/29 22:12:13;;;;;;;;;;;4.20;99.90;;;;;;21042620;28;20370;-79
2024/02/29 22:22:13;;;;;;;;;;;3.70;99.90;;;;;;21049294;28;20015;-79
2024/02/29 22:32:14;;;;;;;;;;;3.80;99.90;;;;;;21052752;28;19924;-78
2024/02/29 22:42:15;;;;;;;;;;;4.10;99.90;;;;;;21040403;28;19916;-78
2024/02/29 22:52:15;;;;;;;;;;;4.30;99.90;;;;;;21030049;28;20544;-78
2024/02/29 23:02:16;;;;;;;;;;;4.40;99.90;;;;;;21028303;28;20024;-78
2024/02/29 23:12:17;;;;;;;;;;;4.30;99.90;;;;;;21064786;28;19920;-78
2024/02/29 23:22:17;;;;;;;;;;;4.40;99.90;;;;;;21081809;28;19955;-79
2024/02/29 23:32:18;;;;;;;;;;;4.50;99.90;;;;;;21085523;28;19944;-79
2024/02/29 23:42:19;;;;;;;;;;;4.60;99.90;;;;;;21081181;28;19962;-79
2024/02/29 23:52:19;;;;;;;;;;;4.50;99.90;;;;;;21072593;28;20595;-80
